Bi Jia Shan — VRJG7 — position and weather

sailwx.info

Track history (hours):
 
Tides and Currents Weather Stations Pressure Air Temp Water Temp Dewpoint Dewpoint Depression Visibility Wind Speed Wind Dir Waves Ship Positions

Bi Jia Shan

Last reported at 2017-Dec-03 18:56 UTC. Time now 2017-Dec-18 07:08 UTC.
Position N 36°02' E 014°56'.
Warning: this ship's position is 14 days out of date.

Length 189 m; draft 12.8 m.

Type: Cargo ship. MMSI: 477847500.

Date/timePositionNaut miles runAvg speedWind from/ knotsBaromVisibWave heightAir tempDewpointWater temp
2017-Dec-03 18:56N 36°02' E 014°56'812.8
2017-Dec-03 18:20N 36°04' E 014°47'512.8
2017-Dec-03 17:58N 36°06' E 014°41'612.8
2017-Dec-03 17:30N 36°08' E 014°34'612.9
2017-Dec-03 17:00N 36°10' E 014°27'712.9
2017-Dec-03 16:30N 36°13' E 014°19'612.7
2017-Dec-03 16:00N 36°15' E 014°12'612.6
2017-Dec-03 15:30N 36°17' E 014°05'712.7
2017-Dec-03 14:59N 36°19' E 013°57'612.5
2017-Dec-03 14:30N 36°22' E 013°50'612.5
2017-Dec-03 14:00N 36°24' E 013°43'  
2017-Nov-30 13:04N 35°60' W 005°12'116.0
2017-Nov-30 13:00N 35°60' W 005°13'815.7
2017-Nov-30 12:30N 35°58' W 005°23'  
2017-Nov-27 12:39N 35°58' W 023°50'211.4
2017-Nov-27 12:30N 35°58' W 023°52'811.6
2017-Nov-27 11:51N 35°58' W 024°01'411.4
2017-Nov-27 11:31N 35°58' W 024°06'611.5
2017-Nov-27 11:00N 35°58' W 024°13'611.6
2017-Nov-27 10:30N 35°58' W 024°20'611.5
2017-Nov-27 10:01N 35°58' W 024°28'611.1
2017-Nov-27 09:31N 35°58' W 024°34'611.1
2017-Nov-27 09:01N 35°58' W 024°41'611.4
2017-Nov-27 08:31N 35°58' W 024°48'611.6
2017-Nov-27 08:01N 35°59' W 024°55'611.4
2017-Nov-27 07:31N 35°59' W 025°03'611.6
2017-Nov-27 07:01N 35°59' W 025°10'611.5
2017-Nov-27 06:31N 35°59' W 025°17'611.1
2017-Nov-27 06:01N 35°59' W 025°24'611.4
2017-Nov-27 05:31N 35°59' W 025°31'611.4
2017-Nov-27 05:01N 35°59' W 025°38'611.0
2017-Nov-27 04:31N 35°59' W 025°44'510.7
2017-Nov-27 04:00N 35°59' W 025°51'510.7
2017-Nov-27 03:31N 35°59' W 025°58'510.8
2017-Nov-27 03:01N 35°59' W 026°04'611.0
2017-Nov-27 02:30N 35°59' W 026°11'  
Track history (hours):
 
Tides and Currents Weather Stations Pressure Air Temp Water Temp Dewpoint Dewpoint Depression Visibility Wind Speed Wind Dir Waves Ship Positions

Bi Jia Shan

Last reported at 2017-Dec-03 18:56 UTC. Time now 2017-Dec-18 07:08 UTC.
Position N 36°02' E 014°56'.
Warning: this ship's position is 14 days out of date.

Length 189 m; draft 12.8 m.

Type: Cargo ship. MMSI: 477847500.

Date/timePositionNaut miles runAvg speedWind from/ knotsBaromVisibWave heightAir tempDewpointWater temp
2017-Dec-03 18:56N 36°02' E 014°56'812.8
2017-Dec-03 18:20N 36°04' E 014°47'512.8
2017-Dec-03 17:58N 36°06' E 014°41'612.8
2017-Dec-03 17:30N 36°08' E 014°34'612.9
2017-Dec-03 17:00N 36°10' E 014°27'712.9
2017-Dec-03 16:30N 36°13' E 014°19'612.7
2017-Dec-03 16:00N 36°15' E 014°12'612.6
2017-Dec-03 15:30N 36°17' E 014°05'712.7
2017-Dec-03 14:59N 36°19' E 013°57'612.5
2017-Dec-03 14:30N 36°22' E 013°50'612.5
2017-Dec-03 14:00N 36°24' E 013°43'  
2017-Nov-30 13:04N 35°60' W 005°12'116.0
2017-Nov-30 13:00N 35°60' W 005°13'815.7
2017-Nov-30 12:30N 35°58' W 005°23'  
2017-Nov-27 12:39N 35°58' W 023°50'211.4
2017-Nov-27 12:30N 35°58' W 023°52'811.6
2017-Nov-27 11:51N 35°58' W 024°01'411.4
2017-Nov-27 11:31N 35°58' W 024°06'611.5
2017-Nov-27 11:00N 35°58' W 024°13'611.6
2017-Nov-27 10:30N 35°58' W 024°20'611.5
2017-Nov-27 10:01N 35°58' W 024°28'611.1
2017-Nov-27 09:31N 35°58' W 024°34'611.1
2017-Nov-27 09:01N 35°58' W 024°41'611.4
2017-Nov-27 08:31N 35°58' W 024°48'611.6
2017-Nov-27 08:01N 35°59' W 024°55'611.4
2017-Nov-27 07:31N 35°59' W 025°03'611.6
2017-Nov-27 07:01N 35°59' W 025°10'611.5
2017-Nov-27 06:31N 35°59' W 025°17'611.1
2017-Nov-27 06:01N 35°59' W 025°24'611.4
2017-Nov-27 05:31N 35°59' W 025°31'611.4
2017-Nov-27 05:01N 35°59' W 025°38'611.0
2017-Nov-27 04:31N 35°59' W 025°44'510.7
2017-Nov-27 04:00N 35°59' W 025°51'510.7
2017-Nov-27 03:31N 35°59' W 025°58'510.8
2017-Nov-27 03:01N 35°59' W 026°04'611.0
2017-Nov-27 02:30N 35°59' W 026°11'  

Dump ship's entire track history